< < Back
Terminal Aerodrome Forecast


Current Version              Previous Versions:   1  2  3  4  5  6  7  8  9  

Terminal Aerodrome Forecast

258
FTUS42 KILM 250000 CCA
TAFILM
TAF COR
KILM 250032Z 2500/2524 VRB04KT P6SM VCSH SCT040 BKN120
     FM250200 24004KT 5SM SHRA VCTS SCT015 BKN040CB
     FM250600 26003KT P6SM VCSH SCT050 BKN100
     FM251300 34005KT P6SM SCT050 SCT100
     FM251800 15006KT P6SM VCTS BKN050CB=



Latest METAR

388
SAUS70 KWBC 250100 RRN
MTRILM
METAR KILM 250053Z AUTO 08005KT 10SM FEW003 24/23 A2988 RMK AO2 LTG DSNT
W AND NW SLP117 T02390228


USA.gov is the U.S. government's official web portal to all federal, state and local government web resources and services.